Time;durP1;ratioP1;P1;durP2;ratioP2;P2;SDS_P1;SDS_P2;PMS_P1;PMS_P2;Temp;Humidity;BMP_temperature;BMP_pressure;BME280_temperature;BME280_humidity;BME280_pressure;Samples;Min_cycle;Max_cycle;Signal;HPM_P1;HPM_P2
2022/07/02 00:00:46;;;;;;;11.75;5.35;;;;;;;24.16;70.71;100735.03;5014597;28;20104;-84
2022/07/02 00:03:15;;;;;;;8.20;5.95;;;;;;;24.13;70.62;100743.69;5014183;28;20022;-83
2022/07/02 00:05:46;;;;;;;8.45;5.30;;;;;;;24.10;69.79;100735.81;5014082;28;20025;-83
2022/07/02 00:08:12;;;;;;;7.95;5.35;;;;;;;24.02;69.43;100734.16;5022851;28;20068;-83
2022/07/02 00:10:38;;;;;;;9.68;5.28;;;;;;;23.98;68.68;100732.00;5022071;28;20034;-84
2022/07/02 00:13:05;;;;;;;14.13;6.40;;;;;;;23.96;68.40;100737.72;5021621;28;20088;-83
2022/07/02 00:15:31;;;;;;;8.38;6.03;;;;;;;23.94;68.49;100730.75;5016356;28;20049;-84
2022/07/02 00:17:56;;;;;;;8.40;6.30;;;;;;;23.91;68.82;100731.16;5015860;28;20025;-84
2022/07/02 00:20:23;;;;;;;12.95;7.65;;;;;;;23.90;69.21;100735.81;5000155;28;20035;-83
2022/07/02 00:22:50;;;;;;;11.80;6.82;;;;;;;23.88;69.45;100731.59;5014221;28;20095;-84
2022/07/02 00:25:16;;;;;;;11.20;7.40;;;;;;;23.85;69.61;100728.19;5013926;28;20397;-84
2022/07/02 00:27:42;;;;;;;10.27;6.60;;;;;;;23.78;69.61;100726.50;5013891;28;20032;-84
2022/07/02 00:30:08;;;;;;;11.93;7.18;;;;;;;23.76;69.95;100720.34;5014141;28;20026;-84
2022/07/02 00:32:35;;;;;;;9.48;6.97;;;;;;;23.74;70.12;100736.19;5013781;28;20036;-83
2022/07/02 00:35:09;;;;;;;17.70;6.75;;;;;;;23.70;70.50;100724.78;5014169;28;20026;-84
2022/07/02 00:37:37;;;;;;;10.60;6.43;;;;;;;23.63;70.62;100731.31;5013797;28;20032;-84
2022/07/02 00:40:06;;;;;;;11.70;6.63;;;;;;;23.62;70.97;100730.47;5013685;28;20105;-85
2022/07/02 00:42:34;;;;;;;12.88;6.30;;;;;;;23.58;71.38;100726.44;5013773;28;20041;-83
2022/07/02 00:45:00;;;;;;;11.63;6.80;;;;;;;23.50;71.46;100715.66;5013849;28;20057;-82
2022/07/02 00:47:28;;;;;;;14.75;7.03;;;;;;;23.56;71.68;100724.94;5013463;28;20013;-82
2022/07/02 00:49:54;;;;;;;12.63;6.65;;;;;;;23.55;72.06;100726.00;5013551;28;20036;-83
2022/07/02 00:52:19;;;;;;;8.07;6.18;;;;;;;23.55;72.27;100735.09;5013915;28;20018;-83
2022/07/02 00:54:45;;;;;;;12.02;6.72;;;;;;;23.53;72.01;100728.97;5013689;28;20025;-82
2022/07/02 00:57:11;;;;;;;9.85;6.70;;;;;;;23.54;72.03;100730.66;5013924;28;20025;-82
2022/07/02 00:59:38;;;;;;;17.35;7.22;;;;;;;23.52;71.98;100726.41;5013831;28;20029;-82
2022/07/02 01:02:06;;;;;;;9.55;6.78;;;;;;;23.50;71.62;100721.13;5013734;28;20538;-83
2022/07/02 01:04:33;;;;;;;18.27;7.25;;;;;;;23.62;70.99;100738.72;5013596;28;20152;-82
2022/07/02 01:07:05;;;;;;;12.15;7.05;;;;;;;23.65;70.95;100730.06;5012554;28;20017;-82
2022/07/02 01:12:27;;;;;;;14.43;7.70;;;;;;;23.61;70.50;100731.50;5013719;28;20119;-83
2022/07/02 01:14:54;;;;;;;25.02;8.95;;;;;;;23.56;70.41;100723.06;4995809;28;20026;-83
2022/07/02 01:17:20;;;;;;;14.30;7.90;;;;;;;23.55;70.72;100720.50;5013124;28;20080;-82
2022/07/02 01:19:46;;;;;;;18.02;7.82;;;;;;;23.42;71.25;100715.84;5013720;28;20022;-81
2022/07/02 01:22:25;;;;;;;11.02;7.40;;;;;;;23.51;71.14;100720.09;5013996;28;20033;-82
2022/07/02 01:24:53;;;;;;;9.63;7.72;;;;;;;23.51;71.09;100733.81;5013342;28;20026;-82
2022/07/02 01:27:20;;;;;;;10.13;7.20;;;;;;;23.49;71.05;100733.16;5014581;28;20089;-88
2022/07/02 01:29:45;;;;;;;7.90;5.82;;;;;;;23.49;71.16;100724.06;5024718;28;20018;-88
2022/07/02 01:32:11;;;;;;;15.95;6.13;;;;;;;23.40;71.12;100734.41;5022918;28;20175;-88
2022/07/02 01:34:44;;;;;;;10.77;6.20;;;;;;;23.38;71.27;100731.00;5019072;28;20538;-89
2022/07/02 01:37:11;;;;;;;9.90;6.07;;;;;;;23.34;71.38;100735.19;5022822;28;20401;-87
2022/07/02 01:39:37;;;;;;;10.35;6.15;;;;;;;23.35;71.00;100736.88;5017487;28;20026;-88
2022/07/02 01:42:04;;;;;;;6.50;5.90;;;;;;;23.28;70.92;100736.00;5019973;28;20034;-88
2022/07/02 01:44:30;;;;;;;8.10;6.00;;;;;;;23.28;70.77;100730.53;5013214;28;20030;-88
2022/07/02 01:46:55;;;;;;;9.10;5.82;;;;;;;23.20;70.68;100745.28;5013348;28;20029;-89
2022/07/02 01:49:21;;;;;;;14.75;7.00;;;;;;;23.15;70.87;100747.78;5013520;28;20393;-88
2022/07/02 01:51:47;;;;;;;9.88;6.95;;;;;;;23.15;70.36;100746.91;5013473;28;20026;-87
2022/07/02 01:54:13;;;;;;;12.18;6.13;;;;;;;23.11;70.08;100740.16;5014797;28;20044;-88
2022/07/02 01:56:39;;;;;;;13.38;6.97;;;;;;;23.06;70.30;100748.13;5031183;28;20016;-87
2022/07/02 01:59:04;;;;;;;10.25;6.15;;;;;;;22.99;69.95;100750.03;5017597;28;20061;-88
2022/07/02 02:01:30;;;;;;;7.82;6.18;;;;;;;22.95;69.93;100745.97;5013310;28;20066;-88
2022/07/02 02:03:56;;;;;;;10.77;6.75;;;;;;;22.89;69.77;100746.78;5013689;28;20452;-87
2022/07/02 02:06:21;;;;;;;13.52;6.90;;;;;;;22.94;69.69;100749.75;5014090;28;20033;-88
2022/07/02 02:08:48;;;;;;;13.00;6.78;;;;;;;22.98;69.27;100743.69;5013298;28;20053;-88
2022/07/02 02:11:13;;;;;;;7.57;6.18;;;;;;;22.93;69.10;100735.22;5013100;28;20108;-89
2022/07/02 02:13:39;;;;;;;16.50;6.93;;;;;;;23.10;68.64;100743.94;5012764;28;20104;-88
2022/07/02 02:16:04;;;;;;;13.98;6.13;;;;;;;23.13;68.26;100746.28;5012564;28;20053;-88
2022/07/02 02:18:30;;;;;;;9.23;6.05;;;;;;;23.06;68.24;100742.66;5017751;28;20029;-88
2022/07/02 02:20:55;;;;;;;15.48;7.03;;;;;;;23.08;68.36;100751.53;5027210;28;20021;-88
2022/07/02 02:23:21;;;;;;;13.07;6.00;;;;;;;23.05;68.62;100754.69;5027951;28;20018;-89
2022/07/02 02:25:46;;;;;;;16.67;6.25;;;;;;;23.06;68.33;100742.66;5030272;28;20029;-88
2022/07/02 02:28:11;;;;;;;11.75;6.00;;;;;;;23.21;67.89;100751.59;5022939;28;20106;-88
2022/07/02 02:30:37;;;;;;;14.52;6.88;;;;;;;23.20;67.68;100755.41;5016246;28;20083;-89
2022/07/02 02:33:02;;;;;;;14.90;6.82;;;;;;;23.20;67.47;100760.91;5016557;28;20083;-89
2022/07/02 02:35:28;;;;;;;7.15;6.35;;;;;;;23.23;67.25;100760.50;5016313;28;20427;-89
2022/07/02 02:37:53;;;;;;;16.95;5.55;;;;;;;23.22;67.85;100758.78;5016417;28;20021;-89
2022/07/02 02:40:19;;;;;;;9.30;5.65;;;;;;;23.23;67.58;100763.22;5015960;28;20475;-88
2022/07/02 02:42:44;;;;;;;14.07;6.50;;;;;;;23.24;67.58;100763.00;5016485;28;20034;-89
2022/07/02 02:45:10;;;;;;;12.68;6.63;;;;;;;23.28;67.50;100758.81;5016096;28;20517;-89
2022/07/02 02:47:36;;;;;;;18.02;6.20;;;;;;;23.28;67.70;100768.94;5018117;28;20111;-88
2022/07/02 02:50:03;;;;;;;13.23;5.65;;;;;;;23.23;67.91;100760.50;5017012;28;20116;-89
2022/07/02 02:52:28;;;;;;;7.90;5.43;;;;;;;23.31;67.54;100777.63;5015796;28;20025;-90
2022/07/02 02:54:54;;;;;;;9.65;5.00;;;;;;;23.31;67.55;100785.00;5016506;28;20022;-89
2022/07/02 02:57:19;;;;;;;16.05;5.68;;;;;;;23.17;67.31;100769.53;5016376;28;20467;-90
2022/07/02 02:59:45;;;;;;;14.60;6.10;;;;;;;23.21;67.54;100795.50;5016327;28;20484;-89
2022/07/02 03:02:10;;;;;;;8.00;5.90;;;;;;;23.17;67.25;100795.09;5019605;28;20026;-88
2022/07/02 03:04:35;;;;;;;9.82;6.43;;;;;;;23.15;67.17;100788.06;5028644;28;20022;-86
2022/07/02 03:07:01;;;;;;;25.45;6.38;;;;;;;23.16;67.55;100792.53;5028121;28;20029;-88
2022/07/02 03:09:26;;;;;;;11.23;6.07;;;;;;;23.17;67.29;100799.72;5027202;28;20151;-89
2022/07/02 03:11:52;;;;;;;13.20;6.28;;;;;;;23.11;67.77;100792.28;5015817;28;20022;-89
2022/07/02 03:14:17;;;;;;;8.63;5.72;;;;;;;23.14;67.68;100792.75;5015811;28;20021;-88
2022/07/02 03:16:43;;;;;;;11.27;6.43;;;;;;;23.04;68.03;100788.66;5018158;28;20037;-88
2022/07/02 03:19:08;;;;;;;13.65;6.28;;;;;;;23.08;68.33;100795.44;5019662;28;20030;-87
2022/07/02 03:21:33;;;;;;;9.85;5.85;;;;;;;23.16;68.31;100798.88;4999788;28;20030;-87
2022/07/02 03:23:59;;;;;;;8.35;5.93;;;;;;;23.22;68.03;100802.69;5015162;28;20065;-85
2022/07/02 03:26:24;;;;;;;15.70;7.00;;;;;;;23.22;68.00;100800.81;5015183;28;20018;-85
2022/07/02 03:28:50;;;;;;;11.02;6.32;;;;;;;23.29;67.64;100809.06;5014443;28;20407;-85
2022/07/02 03:31:15;;;;;;;10.18;6.40;;;;;;;23.20;68.16;100807.53;5015205;28;20021;-84
2022/07/02 03:33:41;;;;;;;12.15;6.32;;;;;;;23.26;67.82;100806.75;5032111;28;20480;-84
2022/07/02 03:36:06;;;;;;;10.57;5.90;;;;;;;23.38;67.90;100804.25;5016964;28;20025;-85
2022/07/02 03:38:32;;;;;;;14.63;7.13;;;;;;;23.45;67.81;100814.25;5014846;28;20029;-83
2022/07/02 03:40:57;;;;;;;9.75;6.53;;;;;;;23.46;67.81;100812.34;5014743;28;20086;-85
2022/07/02 03:43:23;;;;;;;11.45;6.63;;;;;;;23.45;68.10;100808.78;5014446;28;20030;-84
2022/07/02 03:45:48;;;;;;;25.45;7.45;;;;;;;23.30;68.37;100783.34;4995398;28;20041;-79
2022/07/02 03:48:13;;;;;;;10.27;6.85;;;;;;;23.42;69.10;100808.34;4993602;28;20050;-78
2022/07/02 03:50:42;;;;;;;13.73;6.35;;;;;;;23.49;69.08;100810.03;4993433;28;20077;-77
2022/07/02 03:53:08;;;;;;;14.68;6.93;;;;;;;23.45;69.44;100807.94;4979505;28;20030;-86
2022/07/02 03:55:33;;;;;;;13.15;7.18;;;;;;;23.50;69.76;100811.75;4997659;28;20482;-87
2022/07/02 03:57:59;;;;;;;14.40;7.50;;;;;;;23.53;69.64;100816.84;4995798;28;20026;-88
2022/07/02 04:00:24;;;;;;;21.52;8.10;;;;;;;23.54;70.04;100813.03;4994755;28;20109;-90
2022/07/02 04:02:49;;;;;;;16.08;7.53;;;;;;;23.54;70.08;100815.78;4994764;28;20021;-86
2022/07/02 04:05:15;;;;;;;19.15;8.18;;;;;;;23.45;70.56;100805.19;4994995;28;20510;-88
2022/07/02 04:07:40;;;;;;;13.40;7.63;;;;;;;23.52;70.78;100819.75;4995703;28;20026;-84
2022/07/02 04:10:07;;;;;;;12.27;7.40;;;;;;;23.55;70.84;100806.47;4996943;28;20037;-81
2022/07/02 04:12:33;;;;;;;18.83;8.45;;;;;;;23.57;71.33;100809.03;4993281;28;20077;-80
2022/07/02 04:14:58;;;;;;;10.50;7.75;;;;;;;23.59;71.24;100806.91;4993942;28;20062;-87
2022/07/02 04:17:24;;;;;;;16.95;8.60;;;;;;;23.54;71.52;100790.22;4997312;28;20055;-87
2022/07/02 04:19:49;;;;;;;31.90;12.25;;;;;;;23.64;71.60;100798.91;5002715;28;20482;-85
2022/07/02 04:22:15;;;;;;;22.40;9.60;;;;;;;23.84;71.48;100819.91;4977334;28;20535;-87
2022/07/02 04:24:40;;;;;;;19.25;8.13;;;;;;;23.82;71.59;100811.00;4994864;28;20026;-86
2022/07/02 04:27:06;;;;;;;14.20;8.05;;;;;;;23.91;71.57;100824.59;4994705;28;20112;-85
2022/07/02 04:29:31;;;;;;;15.30;7.63;;;;;;;23.93;72.32;100816.97;4994392;28;20023;-84
2022/07/02 04:31:57;;;;;;;16.25;8.02;;;;;;;23.98;72.26;100834.53;4995124;28;20446;-83
2022/07/02 04:34:22;;;;;;;27.05;8.25;;;;;;;24.07;72.49;100822.28;5001289;28;20084;-85
2022/07/02 04:36:48;;;;;;;13.77;7.78;;;;;;;24.21;72.29;100837.81;5001839;28;20057;-85
2022/07/02 04:39:13;;;;;;;21.73;9.98;;;;;;;24.33;72.29;100835.28;4999570;28;20108;-81
2022/07/02 04:41:39;;;;;;;32.78;14.05;;;;;;;24.36;72.40;100834.88;4995908;28;20037;-82
2022/07/02 04:44:04;;;;;;;30.48;18.02;;;;;;;24.50;72.24;100842.06;4993067;28;20846;-79
2022/07/02 04:46:30;;;;;;;42.47;20.95;;;;;;;24.56;71.77;100835.72;4995236;28;20097;-91
2022/07/02 04:48:55;;;;;;;34.40;20.95;;;;;;;24.67;71.67;100835.09;4994946;28;20054;-89
2022/07/02 04:51:21;;;;;;;33.30;20.17;;;;;;;24.73;71.83;100842.50;4993946;28;20030;-80
2022/07/02 04:53:47;;;;;;;37.78;19.65;;;;;;;24.80;72.02;100842.47;4993248;28;20109;-86
2022/07/02 04:56:12;;;;;;;35.38;19.58;;;;;;;24.89;71.66;100847.59;4993749;28;20058;-85
2022/07/02 04:58:38;;;;;;;30.38;19.00;;;;;;;24.87;71.91;100838.72;4994355;28;20117;-85
2022/07/02 05:01:03;;;;;;;30.65;19.10;;;;;;;25.08;71.48;100845.88;4994034;28;20058;-87
2022/07/02 05:03:28;;;;;;;32.67;17.83;;;;;;;25.16;71.39;100850.34;4994006;28;20034;-81
2022/07/02 05:05:54;;;;;;;41.78;17.60;;;;;;;25.13;70.97;100842.50;4993206;28;20502;-80
2022/07/02 05:08:24;;;;;;;30.70;15.90;;;;;;;25.17;69.93;100866.63;4993129;28;20507;-79
2022/07/02 05:10:50;;;;;;;39.13;16.65;;;;;;;25.26;70.58;100858.97;4994008;28;20105;-76
2022/07/02 05:13:15;;;;;;;25.17;14.93;;;;;;;25.29;71.60;100853.03;4993293;28;20117;-85
2022/07/02 05:15:41;;;;;;;29.17;16.02;;;;;;;25.25;72.26;100858.16;4994778;28;20040;-75
2022/07/02 05:18:07;;;;;;;29.25;15.88;;;;;;;25.30;72.62;100852.00;4995732;28;20027;-80
2022/07/02 05:20:32;;;;;;;24.50;15.32;;;;;;;25.31;72.46;100850.94;5000096;28;20086;-90
2022/07/02 05:22:58;;;;;;;36.28;16.00;;;;;;;25.37;72.99;100870.22;4977362;28;20507;-88
2022/07/02 05:25:23;;;;;;;37.92;17.10;;;;;;;25.44;72.92;100861.94;4979622;28;20042;-87
2022/07/02 05:27:49;;;;;;;27.38;17.15;;;;;;;25.48;73.27;100856.81;4994876;28;20034;-87
2022/07/02 05:30:14;;;;;;;26.60;15.93;;;;;;;25.39;72.93;100837.78;4993246;28;20030;-87
2022/07/02 05:32:39;;;;;;;28.30;16.83;;;;;;;25.54;72.66;100839.44;4975508;28;20074;-87
2022/07/02 05:35:05;;;;;;;26.40;16.33;;;;;;;25.61;72.85;100873.34;4993831;28;20030;-87
2022/07/02 05:37:30;;;;;;;32.90;16.90;;;;;;;25.65;72.93;100869.09;4993226;28;20027;-88
2022/07/02 05:39:56;;;;;;;28.92;16.55;;;;;;;25.43;73.49;100838.19;4976204;28;20030;-87
2022/07/02 05:42:21;;;;;;;37.20;18.48;;;;;;;25.67;72.66;100864.22;4996724;28;20041;-86
2022/07/02 05:44:47;;;;;;;43.17;18.08;;;;;;;25.66;72.36;100866.13;5000999;28;20057;-88
2022/07/02 05:47:12;;;;;;;34.35;18.35;;;;;;;25.62;72.73;100853.84;4992983;28;20110;-87
2022/07/02 05:49:38;;;;;;;44.42;18.20;;;;;;;25.82;72.55;100881.31;4993867;28;20034;-87
2022/07/02 05:52:03;;;;;;;30.08;19.58;;;;;;;25.85;72.70;100876.22;4976165;28;20022;-88
2022/07/02 05:54:29;;;;;;;30.00;19.27;;;;;;;25.81;72.99;100891.50;4997003;28;20034;-88
2022/07/02 05:56:55;;;;;;;32.17;19.05;;;;;;;25.85;72.98;100876.22;4997205;28;20073;-87
2022/07/02 05:59:22;;;;;;;33.28;18.48;;;;;;;25.87;72.87;100871.31;4996753;28;20026;-89
2022/07/02 06:01:48;;;;;;;26.27;16.27;;;;;;;26.03;72.78;100889.28;4997095;28;20034;-88
2022/07/02 06:04:13;;;;;;;36.08;18.83;;;;;;;25.77;72.91;100851.69;4997287;28;20499;-88
2022/07/02 06:09:23;;;;;;;27.70;16.80;;;;;;;26.06;73.10;100883.31;4997642;28;20115;-88
2022/07/02 06:11:48;;;;;;;25.58;17.90;;;;;;;26.12;73.43;100895.38;4987992;28;20042;-86
2022/07/02 06:14:14;;;;;;;37.42;21.27;;;;;;;26.11;73.34;100902.00;5005285;28;20031;-88
2022/07/02 06:16:39;;;;;;;28.92;17.13;;;;;;;26.14;73.33;100896.03;5005337;28;20023;-86
2022/07/02 06:19:06;;;;;;;35.25;20.10;;;;;;;26.02;73.49;100878.50;5001730;28;20026;-87
2022/07/02 06:21:32;;;;;;;25.13;18.00;;;;;;;26.13;73.44;100902.59;4997085;28;20026;-89
2022/07/02 06:23:58;;;;;;;31.17;16.33;;;;;;;25.99;73.10;100872.31;4996498;28;20105;-88
2022/07/02 06:26:23;;;;;;;22.98;14.43;;;;;;;26.11;73.64;100879.94;4996944;28;20060;-89
2022/07/02 06:28:49;;;;;;;19.83;11.80;;;;;;;26.14;74.26;100885.84;4996576;28;20027;-88
2022/07/02 06:31:14;;;;;;;21.88;13.30;;;;;;;26.25;74.12;100898.13;4978730;28;20472;-86
2022/07/02 06:33:41;;;;;;;24.40;13.88;;;;;;;26.27;73.27;100891.31;4984164;28;20039;-88
2022/07/02 06:36:10;;;;;;;14.68;10.93;;;;;;;26.35;74.04;100899.34;4996643;28;20058;-87
2022/07/02 06:38:39;;;;;;;16.15;10.75;;;;;;;26.43;74.92;100906.50;4996438;28;20027;-87
2022/07/02 06:42:18;;;;;;;25.52;12.20;;;;;;;26.33;74.88;100878.53;4979494;28;20038;-88
2022/07/02 06:43:50;;;;;;;24.27;11.18;;;;;;;26.45;74.81;100901.63;4996778;28;20030;-88
2022/07/02 06:46:15;;;;;;;26.20;11.63;;;;;;;26.52;74.71;100896.88;4997276;28;20041;-87
2022/07/02 06:48:40;;;;;;;30.30;10.40;;;;;;;26.66;74.31;100900.41;4999015;28;20512;-87
2022/07/02 06:51:06;;;;;;;14.80;10.50;;;;;;;26.47;74.00;100874.66;5014718;28;20096;-88
2022/07/02 06:53:32;;;;;;;20.73;11.40;;;;;;;26.73;74.02;100902.03;5015352;28;20040;-86
2022/07/02 06:55:58;;;;;;;23.27;14.95;;;;;;;26.67;73.89;100891.91;5002037;28;20100;-88
2022/07/02 06:58:23;;;;;;;22.30;10.63;;;;;;;26.85;74.22;100911.31;4998039;28;20018;-87
2022/07/02 07:00:49;;;;;;;20.40;12.60;;;;;;;26.76;73.99;100900.75;4998409;28;20026;-86
2022/07/02 07:03:14;;;;;;;23.15;11.35;;;;;;;26.70;73.59;100885.94;4995981;28;20015;-88
2022/07/02 07:05:45;;;;;;;26.83;12.02;;;;;;;26.69;73.88;100875.97;4995627;28;20030;-88
2022/07/02 07:08:10;;;;;;;21.63;10.27;;;;;;;26.88;73.02;100894.31;4995845;28;20104;-87
2022/07/02 07:10:36;;;;;;;31.48;10.40;;;;;;;26.85;73.49;100911.31;4996204;28;20022;-87
2022/07/02 07:13:01;;;;;;;13.15;10.02;;;;;;;26.87;72.90;100911.97;4995890;28;20469;-88
2022/07/02 07:15:27;;;;;;;19.48;8.63;;;;;;;26.97;73.07;100915.03;4995509;28;20022;-88
2022/07/02 07:17:53;;;;;;;14.27;9.50;;;;;;;26.95;72.82;100911.69;5007201;28;20018;-88
2022/07/02 07:20:19;;;;;;;14.82;8.48;;;;;;;27.06;73.05;100903.75;4999437;28;20463;-88
2022/07/02 07:22:44;;;;;;;14.68;9.80;;;;;;;26.99;72.29;100896.34;4995771;28;20022;-88
2022/07/02 07:25:10;;;;;;;23.20;9.10;;;;;;;27.00;72.01;100870.41;4995916;28;20150;-88
2022/07/02 07:27:35;;;;;;;18.17;8.07;;;;;;;27.37;70.95;100920.22;4995897;28;20109;-88
2022/07/02 07:30:01;;;;;;;13.38;7.65;;;;;;;27.43;71.28;100927.66;4997033;28;20026;-86
2022/07/02 07:32:26;;;;;;;17.48;7.38;;;;;;;27.45;70.75;100906.16;4994079;28;20492;-88
2022/07/02 07:34:52;;;;;;;17.73;7.60;;;;;;;27.48;70.68;100905.69;4978195;28;20022;-88
2022/07/02 07:37:17;;;;;;;10.95;7.32;;;;;;;27.55;70.06;100914.78;4978591;28;20038;-88
2022/07/02 07:39:43;;;;;;;25.50;7.72;;;;;;;27.67;69.36;100929.53;5000825;28;20026;-86
2022/07/02 07:42:08;;;;;;;16.27;7.07;;;;;;;27.54;70.50;100921.38;5013641;28;20023;-85
2022/07/02 07:44:34;;;;;;;16.95;7.88;;;;;;;27.46;70.42;100908.66;5013709;28;20089;-86
2022/07/02 07:47:00;;;;;;;25.10;8.75;;;;;;;27.56;70.53;100925.59;5013541;28;20022;-87
2022/07/02 07:49:25;;;;;;;10.75;8.35;;;;;;;27.60;69.90;100925.97;4996628;28;20046;-88
2022/07/02 07:51:52;;;;;;;9.95;7.03;;;;;;;27.69;69.34;100937.56;4997819;28;20118;-86
2022/07/02 07:54:17;;;;;;;14.13;6.95;;;;;;;27.71;69.22;100933.50;4978479;28;20116;-88
2022/07/02 07:56:43;;;;;;;16.95;7.55;;;;;;;27.70;69.21;100926.31;4996096;28;20169;-86
2022/07/02 07:59:09;;;;;;;13.27;6.47;;;;;;;27.84;68.86;100933.34;4995785;28;20029;-88
2022/07/02 08:01:35;;;;;;;10.93;6.63;;;;;;;27.84;67.16;100925.06;4994779;28;20030;-87
2022/07/02 08:04:03;;;;;;;15.65;6.10;;;;;;;27.89;65.70;100933.50;4994748;28;20026;-86
2022/07/02 08:06:28;;;;;;;18.42;5.95;;;;;;;27.79;65.62;100927.69;4996128;28;20033;-87
2022/07/02 08:08:54;;;;;;;15.60;6.15;;;;;;;27.69;65.59;100907.16;4977765;28;20522;-88
2022/07/02 08:11:19;;;;;;;19.13;7.28;;;;;;;27.83;65.72;100931.66;4977411;28;20030;-87
2022/07/02 08:13:45;;;;;;;11.15;5.68;;;;;;;27.70;64.58;100914.38;4998604;28;20061;-88
2022/07/02 08:16:10;;;;;;;21.35;5.65;;;;;;;27.77;64.87;100907.69;5000303;28;20113;-89
2022/07/02 08:18:36;;;;;;;12.50;5.97;;;;;;;27.96;62.92;100914.06;5001688;28;20035;-89
2022/07/02 08:21:01;;;;;;;10.93;5.60;;;;;;;27.98;61.94;100923.81;4997862;28;20349;-89
2022/07/02 08:23:27;;;;;;;12.02;5.82;;;;;;;28.23;62.31;100933.97;4978352;28;20032;-88
2022/07/02 08:25:54;;;;;;;8.75;5.55;;;;;;;28.32;62.01;100935.31;4997251;28;20037;-87
2022/07/02 08:28:20;;;;;;;9.45;5.63;;;;;;;28.10;62.41;100912.88;5009883;28;20053;-86
2022/07/02 08:30:46;;;;;;;8.98;5.82;;;;;;;28.25;62.36;100937.34;5003868;28;20034;-87
2022/07/02 08:33:15;;;;;;;11.30;5.60;;;;;;;28.32;62.36;100940.88;4995070;28;20192;-88
2022/07/02 08:35:41;;;;;;;12.10;5.50;;;;;;;28.34;62.21;100922.97;4994469;28;20092;-86
2022/07/02 08:38:06;;;;;;;10.30;5.10;;;;;;;28.49;61.71;100931.69;4994010;28;20109;-88
2022/07/02 08:40:32;;;;;;;10.85;5.15;;;;;;;28.52;61.58;100941.44;4994447;28;20463;-88
2022/07/02 08:43:00;;;;;;;8.80;5.38;;;;;;;28.72;60.73;100953.09;4995732;28;20046;-88
2022/07/02 08:45:29;;;;;;;13.07;5.47;;;;;;;28.60;58.76;100916.19;4994956;28;20030;-89
2022/07/02 08:47:56;;;;;;;14.90;6.05;;;;;;;28.88;57.22;100951.59;4976701;28;20129;-89
2022/07/02 08:50:23;;;;;;;5.50;4.75;;;;;;;28.98;57.20;100949.09;4994450;28;20091;-87
2022/07/02 08:52:53;;;;;;;6.88;5.28;;;;;;;28.99;54.16;100950.78;4994208;28;20026;-88
2022/07/02 08:55:20;;;;;;;10.13;4.82;;;;;;;28.97;54.58;100939.09;4977176;28;20036;-89
2022/07/02 08:57:47;;;;;;;9.75;4.57;;;;;;;28.95;54.98;100925.47;4994545;28;20029;-87
2022/07/02 09:00:15;;;;;;;9.85;5.25;;;;;;;29.25;53.47;100957.84;4994567;28;20030;-89
2022/07/02 09:02:42;;;;;;;10.18;5.18;;;;;;;29.26;52.35;100948.44;4994135;28;20400;-88
2022/07/02 09:05:09;;;;;;;10.07;4.97;;;;;;;29.27;52.50;100955.66;4976973;28;20483;-89
2022/07/02 09:07:37;;;;;;;7.63;4.70;;;;;;;29.23;51.80;100949.75;4982847;28;20444;-88
2022/07/02 09:10:03;;;;;;;13.10;5.10;;;;;;;29.28;51.12;100947.13;5005945;28;20041;-88
2022/07/02 09:12:29;;;;;;;12.02;4.82;;;;;;;29.36;50.37;100952.28;5008761;28;20026;-86
2022/07/02 09:14:55;;;;;;;11.25;4.68;;;;;;;29.11;50.25;100921.19;5004848;28;20029;-88
2022/07/02 09:17:20;;;;;;;7.25;4.40;;;;;;;29.13;49.48;100921.78;4999974;28;20392;-87
2022/07/02 09:19:46;;;;;;;16.50;5.10;;;;;;;29.33;48.91;100954.69;4982036;28;20048;-88
2022/07/02 09:22:12;;;;;;;10.68;4.63;;;;;;;29.37;48.79;100955.91;4997183;28;20030;-89
2022/07/02 09:24:42;;;;;;;7.47;4.53;;;;;;;29.39;48.87;100942.66;4995585;28;20374;-89
2022/07/02 09:27:16;;;;;;;8.90;4.63;;;;;;;29.40;48.75;100949.88;4977311;28;20035;-90
2022/07/02 09:29:52;;;;;;;8.70;4.57;;;;;;;29.43;48.82;100952.19;4980405;28;20029;-88
2022/07/02 09:32:20;;;;;;;9.93;4.35;;;;;;;29.60;49.18;100961.47;4998576;28;20030;-88
2022/07/02 09:34:51;;;;;;;12.15;4.20;;;;;;;29.69;48.96;100960.03;4998617;28;20087;-88
2022/07/02 09:37:24;;;;;;;8.65;4.72;;;;;;;29.74;49.14;100962.91;4981307;28;20034;-88
2022/07/02 09:39:53;;;;;;;9.35;4.40;;;;;;;29.87;50.01;100961.84;4997879;28;20026;-89
2022/07/02 09:42:27;;;;;;;10.32;4.68;;;;;;;29.94;49.39;100968.94;4997725;28;20030;-88
2022/07/02 09:44:53;;;;;;;9.88;4.43;;;;;;;29.85;48.91;100961.22;4997427;28;20030;-88
2022/07/02 09:47:48;;;;;;;5.13;3.97;;;;;;;29.85;48.45;100975.94;4998595;28;20026;-88
2022/07/02 09:50:15;;;;;;;9.77;4.10;;;;;;;29.72;49.02;100973.41;4997384;28;20042;-88
2022/07/02 09:52:49;;;;;;;22.70;5.50;;;;;;;29.62;47.76;100970.38;4998090;28;20038;-87
2022/07/02 09:55:31;;;;;;;6.28;4.93;;;;;;;29.55;48.79;100969.66;4999950;28;20026;-88
2022/07/02 09:57:59;;;;;;;5.30;4.45;;;;;;;29.57;49.04;100978.59;4986475;28;20061;-88
2022/07/02 10:00:27;;;;;;;7.07;4.63;;;;;;;29.62;49.17;100975.94;4997733;28;20027;-88
2022/07/02 10:02:55;;;;;;;14.07;5.00;;;;;;;29.53;49.30;100963.53;4997573;28;20416;-86
2022/07/02 10:05:28;;;;;;;11.65;4.03;;;;;;;29.65;50.09;100981.00;5000990;28;20033;-87
2022/07/02 10:07:56;;;;;;;21.25;4.22;;;;;;;29.63;50.03;100975.69;4999778;28;20085;-87
2022/07/02 10:10:34;;;;;;;11.40;4.82;;;;;;;29.62;50.58;100976.78;4997142;28;20038;-87
2022/07/02 10:13:00;;;;;;;10.23;5.05;;;;;;;29.57;49.75;100945.31;4996970;28;20026;-86
2022/07/02 10:15:30;;;;;;;10.30;5.93;;;;;;;29.68;48.67;100945.31;4996705;28;20484;-87
2022/07/02 10:17:56;;;;;;;14.25;5.38;;;;;;;29.99;48.73;100977.38;4996768;28;20058;-88
2022/07/02 10:20:23;;;;;;;10.50;5.70;;;;;;;30.04;48.31;100983.03;4997223;28;20030;-87
2022/07/02 10:22:51;;;;;;;10.43;4.53;;;;;;;30.11;48.97;100975.44;4997700;28;20033;-87
2022/07/02 10:25:18;;;;;;;8.02;5.43;;;;;;;30.17;49.13;100987.47;4996452;28;20412;-87
2022/07/02 10:27:45;;;;;;;16.45;5.38;;;;;;;30.22;49.06;100970.94;4996577;28;20101;-88
2022/07/02 10:30:12;;;;;;;14.25;5.82;;;;;;;30.25;49.68;100975.97;4997520;28;20082;-86
2022/07/02 10:32:52;;;;;;;8.02;4.75;;;;;;;30.29;49.84;100976.34;4998424;28;20038;-87
2022/07/02 10:35:18;;;;;;;6.60;5.10;;;;;;;30.28;49.85;100969.09;5009764;28;20090;-85
2022/07/02 10:37:44;;;;;;;10.70;4.70;;;;;;;30.36;50.15;100971.50;5012559;28;20053;-85
2022/07/02 10:40:17;;;;;;;8.88;4.75;;;;;;;30.35;49.78;100980.91;5014078;28;20030;-86
2022/07/02 10:42:45;;;;;;;11.68;4.85;;;;;;;30.31;49.80;100975.00;4987850;28;20045;-87
2022/07/02 10:45:19;;;;;;;15.48;4.78;;;;;;;30.42;50.20;100976.09;4998774;28;20030;-86
2022/07/02 10:48:06;;;;;;;9.45;5.25;;;;;;;30.41;48.99;100979.94;4980265;28;20048;-87
2022/07/02 10:50:40;;;;;;;8.20;4.82;;;;;;;30.48;49.13;100977.88;4996468;28;20023;-88
2022/07/02 10:53:17;;;;;;;8.75;5.18;;;;;;;30.43;48.86;100956.41;4996436;28;20109;-87
2022/07/02 10:55:52;;;;;;;14.27;4.68;;;;;;;30.52;49.21;100970.75;4978108;28;20138;-87
2022/07/02 10:58:23;;;;;;;7.93;4.97;;;;;;;30.48;49.61;100955.69;4995516;28;20030;-85
2022/07/02 11:00:49;;;;;;;9.13;4.63;;;;;;;30.48;49.46;100947.34;4978719;28;20030;-88
2022/07/02 11:03:19;;;;;;;7.30;4.57;;;;;;;30.67;49.88;100968.28;4997718;28;20025;-88
2022/07/02 11:05:56;;;;;;;13.30;3.58;;;;;;;30.81;49.91;100969.66;4982913;28;20572;-87
2022/07/02 11:08:49;;;;;;;11.18;4.50;;;;;;;30.67;50.16;100974.66;4999703;28;20097;-87
2022/07/02 11:11:39;;;;;;;8.90;4.18;;;;;;;30.65;51.09;100970.44;4978883;28;20029;-88
2022/07/02 11:14:08;;;;;;;9.82;4.63;;;;;;;30.55;50.90;100971.09;4982303;28;20062;-88
2022/07/02 11:16:40;;;;;;;8.43;4.78;;;;;;;30.54;50.56;100968.56;5004107;28;20053;-88
2022/07/02 11:19:20;;;;;;;11.85;4.35;;;;;;;30.31;51.39;100954.72;5006752;28;20049;-88
2022/07/02 11:21:50;;;;;;;5.80;3.83;;;;;;;30.43;51.13;100986.09;5004078;28;20026;-87